createdAt,value
2023-02-03T00:00:12.165Z,11.75
2023-02-03T00:03:16.728Z,11.88
2023-02-03T00:06:21.622Z,16.55
2023-02-03T00:09:26.382Z,11.65
2023-02-03T00:12:31.232Z,12.90
2023-02-03T00:15:36.025Z,12.32
2023-02-03T00:18:41.161Z,14.55
2023-02-03T00:21:46.286Z,13.38
2023-02-03T00:24:50.657Z,14.90
2023-02-03T00:27:55.431Z,5.25
2023-02-03T00:31:00.200Z,8.02
2023-02-03T00:34:05.065Z,13.32
2023-02-03T00:37:13.452Z,9.05
2023-02-03T00:40:19.056Z,9.00
2023-02-03T00:43:23.754Z,11.43
2023-02-03T00:46:28.292Z,13.43
2023-02-03T00:49:32.545Z,9.23
2023-02-03T00:52:37.174Z,6.63
2023-02-03T00:55:43.883Z,7.28
2023-02-03T00:58:48.563Z,8.63
2023-02-03T01:01:53.388Z,17.10
2023-02-03T01:04:58.186Z,15.40
2023-02-03T01:08:04.336Z,14.27
2023-02-03T01:11:14.520Z,10.25
2023-02-03T01:14:19.085Z,9.90
2023-02-03T01:17:24.395Z,14.93
2023-02-03T01:20:29.601Z,11.57
2023-02-03T01:23:37.509Z,13.48
2023-02-03T01:26:42.991Z,11.35
2023-02-03T01:29:47.476Z,15.35
2023-02-03T01:32:51.873Z,10.57
2023-02-03T01:35:56.579Z,11.55
2023-02-03T01:39:01.533Z,13.20
2023-02-03T01:42:08.947Z,13.10
2023-02-03T01:45:14.457Z,14.98
2023-02-03T01:48:19.189Z,14.93
2023-02-03T01:51:24.579Z,10.13
2023-02-03T01:54:38.862Z,8.10
2023-02-03T01:58:13.567Z,12.45
2023-02-03T02:01:19.726Z,13.23
2023-02-03T02:04:34.928Z,9.55
2023-02-03T02:07:41.212Z,7.97
2023-02-03T02:10:47.400Z,8.82
2023-02-03T02:13:57.323Z,7.95
2023-02-03T02:17:42.265Z,6.95
2023-02-03T02:21:12.480Z,18.13
2023-02-03T02:24:50.786Z,7.70
2023-02-03T02:28:29.324Z,10.45
2023-02-03T02:32:14.447Z,9.27
2023-02-03T02:35:27.416Z,8.50
2023-02-03T02:39:07.490Z,7.38
2023-02-03T02:42:33.917Z,6.38
2023-02-03T02:45:48.191Z,8.68
2023-02-03T02:49:34.225Z,7.22
2023-02-03T02:52:42.828Z,10.07
2023-02-03T02:55:48.535Z,8.82
2023-02-03T02:58:56.031Z,7.82
2023-02-03T03:02:00.730Z,9.15
2023-02-03T03:05:09.522Z,8.65
2023-02-03T03:08:26.417Z,12.80
2023-02-03T03:11:35.450Z,9.32
2023-02-03T03:14:45.488Z,10.40
2023-02-03T03:18:00.568Z,9.55
2023-02-03T03:21:07.018Z,7.05
2023-02-03T03:24:18.833Z,5.95
2023-02-03T03:27:28.710Z,9.05
2023-02-03T03:30:36.383Z,5.90
2023-02-03T03:33:41.321Z,5.20
2023-02-03T03:37:01.156Z,8.30
2023-02-03T03:40:27.209Z,6.55
2023-02-03T03:43:42.334Z,10.52
2023-02-03T03:46:54.951Z,13.05
2023-02-03T03:50:02.562Z,9.80
2023-02-03T03:53:10.005Z,8.07
2023-02-03T03:56:22.590Z,9.40
2023-02-03T03:59:32.350Z,8.93
2023-02-03T04:02:41.290Z,8.73
2023-02-03T04:05:52.909Z,11.18
2023-02-03T04:08:59.411Z,7.00
2023-02-03T04:12:06.401Z,12.98
2023-02-03T04:15:10.858Z,9.95
2023-02-03T04:18:16.779Z,8.57
2023-02-03T04:21:22.036Z,12.73
2023-02-03T04:24:26.444Z,8.40
2023-02-03T04:27:30.871Z,8.45
2023-02-03T04:30:35.647Z,9.52
2023-02-03T04:33:40.493Z,8.60
2023-02-03T04:36:45.432Z,8.45
2023-02-03T04:39:52.191Z,9.85
2023-02-03T04:42:56.760Z,11.02
2023-02-03T04:46:01.672Z,7.97
2023-02-03T04:49:06.903Z,14.60
2023-02-03T04:52:12.261Z,8.98
2023-02-03T04:55:16.864Z,5.95
2023-02-03T04:58:21.764Z,10.70
2023-02-03T05:01:26.837Z,8.88
2023-02-03T05:04:32.448Z,12.15
2023-02-03T05:07:36.706Z,7.28
2023-02-03T05:10:41.594Z,7.97
2023-02-03T05:13:46.647Z,9.50
2023-02-03T05:16:51.584Z,9.80
2023-02-03T05:19:56.181Z,8.60
2023-02-03T05:23:01.318Z,7.30
2023-02-03T05:26:05.640Z,13.05
2023-02-03T05:29:11.759Z,9.15
2023-02-03T05:32:16.067Z,9.02
2023-02-03T05:35:20.845Z,12.00
2023-02-03T05:38:25.244Z,8.63
2023-02-03T05:41:47.959Z,9.75
2023-02-03T05:44:52.875Z,13.45
2023-02-03T05:47:57.490Z,8.55
2023-02-03T05:51:02.644Z,5.13
2023-02-03T05:54:08.067Z,6.15
2023-02-03T05:57:13.516Z,9.80
2023-02-03T06:00:18.920Z,11.90
2023-02-03T06:03:23.603Z,6.30
2023-02-03T06:06:33.181Z,7.82
2023-02-03T06:09:37.668Z,9.88
2023-02-03T06:12:42.894Z,6.47
2023-02-03T06:15:47.481Z,16.15
2023-02-03T06:18:54.047Z,8.07
2023-02-03T06:21:58.720Z,12.60
2023-02-03T06:25:03.982Z,8.43
2023-02-03T06:28:09.153Z,11.05
2023-02-03T06:31:13.950Z,10.13
2023-02-03T06:34:18.539Z,6.75
2023-02-03T06:37:24.814Z,11.65
2023-02-03T06:40:30.019Z,9.63
2023-02-03T06:43:35.627Z,11.52
2023-02-03T06:46:40.524Z,11.20
2023-02-03T06:49:45.371Z,10.55
2023-02-03T06:52:50.782Z,8.80
2023-02-03T06:55:55.160Z,10.85
2023-02-03T06:58:59.499Z,7.32
2023-02-03T07:02:04.956Z,10.20
2023-02-03T07:05:09.936Z,6.93
2023-02-03T07:08:14.515Z,8.77
2023-02-03T07:11:18.856Z,6.82
2023-02-03T07:14:23.483Z,11.02
2023-02-03T07:17:28.311Z,8.75
2023-02-03T07:20:33.055Z,7.55
2023-02-03T07:23:37.738Z,8.75
2023-02-03T07:26:43.204Z,6.68
2023-02-03T07:29:47.521Z,11.02
2023-02-03T07:32:53.755Z,9.98
2023-02-03T07:35:59.997Z,7.25
2023-02-03T07:39:04.818Z,13.27
2023-02-03T07:42:09.727Z,8.38
2023-02-03T07:45:19.596Z,9.27
2023-02-03T07:48:24.259Z,5.82
2023-02-03T07:51:28.972Z,6.88
2023-02-03T07:54:33.261Z,10.13
2023-02-03T07:57:37.974Z,8.82
2023-02-03T08:00:42.775Z,8.65
2023-02-03T08:03:47.946Z,10.10
2023-02-03T08:06:52.941Z,8.68
2023-02-03T08:09:57.865Z,11.80
2023-02-03T08:13:02.803Z,7.15
2023-02-03T08:16:07.779Z,10.38
2023-02-03T08:19:12.712Z,5.75
2023-02-03T08:22:17.953Z,7.80
2023-02-03T08:25:22.854Z,6.03
2023-02-03T08:28:27.428Z,9.15
2023-02-03T08:31:32.321Z,5.20
2023-02-03T08:34:37.859Z,5.47
2023-02-03T08:37:43.039Z,6.78
2023-02-03T08:40:47.627Z,4.82
2023-02-03T08:43:54.134Z,6.35
2023-02-03T08:46:59.512Z,12.43
2023-02-03T08:50:07.790Z,10.07
2023-02-03T08:53:12.838Z,7.22
2023-02-03T08:56:17.744Z,8.68
2023-02-03T08:59:23.125Z,7.72
2023-02-03T09:02:27.827Z,5.68
2023-02-03T09:05:34.278Z,8.40
2023-02-03T09:08:39.310Z,16.63
2023-02-03T09:11:44.323Z,11.32
2023-02-03T09:14:49.051Z,6.57
2023-02-03T09:17:55.352Z,6.28
2023-02-03T09:21:13.957Z,7.63
2023-02-03T09:24:25.863Z,7.57
2023-02-03T09:27:30.445Z,11.45
2023-02-03T09:30:35.008Z,8.80
2023-02-03T09:33:40.475Z,7.25
2023-02-03T09:36:45.378Z,13.38
2023-02-03T09:39:50.399Z,8.10
2023-02-03T09:43:32.340Z,7.38
2023-02-03T09:46:48.754Z,8.55
2023-02-03T09:50:04.010Z,9.32
2023-02-03T09:53:36.876Z,5.30
2023-02-03T09:56:50.241Z,6.55
2023-02-03T10:00:00.211Z,9.50
2023-02-03T10:03:54.281Z,7.38
2023-02-03T10:07:25.290Z,9.60
2023-02-03T10:10:49.214Z,8.70
2023-02-03T10:14:23.817Z,7.07
2023-02-03T10:17:50.963Z,7.35
2023-02-03T10:21:06.190Z,8.48
2023-02-03T10:24:25.062Z,7.60
2023-02-03T10:27:32.047Z,10.15
2023-02-03T10:31:21.566Z,11.07
2023-02-03T10:34:26.647Z,7.28
2023-02-03T10:37:38.260Z,6.60
2023-02-03T10:40:43.330Z,6.35
2023-02-03T10:43:51.947Z,10.27
2023-02-03T10:46:57.759Z,6.63
2023-02-03T10:50:23.235Z,9.65
2023-02-03T10:53:36.234Z,8.35
2023-02-03T10:56:41.481Z,4.82
2023-02-03T10:59:48.494Z,5.15
2023-02-03T11:03:06.838Z,6.60
2023-02-03T11:06:17.365Z,7.25
2023-02-03T11:09:40.352Z,4.50
2023-02-03T11:12:44.862Z,9.48
2023-02-03T11:16:03.911Z,8.13
2023-02-03T11:19:21.611Z,6.20
2023-02-03T11:22:37.297Z,7.88
2023-02-03T11:25:41.962Z,6.80
2023-02-03T11:28:51.368Z,12.73
2023-02-03T11:31:59.639Z,8.18
2023-02-03T11:35:24.401Z,10.73
2023-02-03T11:38:38.698Z,6.80
2023-02-03T11:41:43.724Z,9.73
2023-02-03T11:44:48.472Z,8.63
2023-02-03T11:48:00.309Z,9.20
2023-02-03T11:51:31.227Z,8.93
2023-02-03T11:54:48.639Z,7.53
2023-02-03T11:58:05.885Z,11.75
2023-02-03T12:01:37.762Z,6.55
2023-02-03T12:04:54.489Z,6.38
2023-02-03T12:08:35.143Z,9.80
2023-02-03T12:12:13.168Z,6.45
2023-02-03T12:15:43.137Z,5.13
2023-02-03T12:19:05.650Z,7.20
2023-02-03T12:22:25.958Z,7.55
2023-02-03T12:25:58.011Z,9.93
2023-02-03T12:29:21.987Z,9.23
2023-02-03T12:32:49.735Z,8.80
2023-02-03T12:36:10.141Z,5.47
2023-02-03T12:40:00.968Z,7.93
2023-02-03T12:43:42.621Z,6.65
2023-02-03T12:47:01.131Z,4.47
2023-02-03T12:50:21.740Z,8.07
2023-02-03T12:53:36.533Z,8.93
2023-02-03T12:56:44.596Z,14.70
2023-02-03T13:00:29.600Z,8.05
2023-02-03T13:03:55.833Z,11.32
2023-02-03T13:07:42.029Z,8.00
2023-02-03T13:11:02.515Z,8.43
2023-02-03T13:14:31.858Z,7.40
2023-02-03T13:18:16.225Z,11.38
2023-02-03T13:21:21.015Z,9.15
2023-02-03T13:24:28.344Z,9.98
2023-02-03T13:27:46.690Z,8.75
2023-02-03T13:31:19.537Z,15.30
2023-02-03T13:34:55.216Z,14.63
2023-02-03T13:38:12.209Z,7.25
2023-02-03T13:41:50.063Z,11.25
2023-02-03T13:45:05.184Z,11.27
2023-02-03T13:48:22.134Z,9.43
2023-02-03T13:51:35.907Z,11.38
2023-02-03T13:54:44.496Z,11.45
2023-02-03T13:57:52.090Z,12.55
2023-02-03T14:00:56.605Z,13.05
2023-02-03T14:04:02.879Z,11.82
2023-02-03T14:07:33.720Z,11.10
2023-02-03T14:10:38.265Z,12.20
2023-02-03T14:13:44.420Z,10.38
2023-02-03T14:16:54.586Z,15.02
2023-02-03T14:19:59.679Z,12.15
2023-02-03T14:23:07.340Z,13.43
2023-02-03T14:26:24.403Z,10.77
2023-02-03T14:29:32.243Z,13.30
2023-02-03T14:33:02.821Z,13.63
2023-02-03T14:36:43.528Z,17.73
2023-02-03T14:40:11.368Z,19.40
2023-02-03T14:43:31.531Z,12.43
2023-02-03T14:47:14.700Z,13.02
2023-02-03T14:50:40.051Z,15.85
2023-02-03T14:53:56.666Z,10.52
2023-02-03T14:57:17.464Z,16.80
2023-02-03T15:00:23.694Z,12.75
2023-02-03T15:03:30.822Z,9.93
2023-02-03T15:07:01.450Z,19.85
2023-02-03T15:10:20.257Z,14.57
2023-02-03T15:13:30.868Z,14.57
2023-02-03T15:16:35.680Z,12.65
2023-02-03T15:19:42.817Z,17.45
2023-02-03T15:22:47.787Z,17.20
2023-02-03T15:26:03.083Z,17.30
2023-02-03T15:29:28.822Z,24.30
2023-02-03T15:32:39.853Z,19.80
2023-02-03T15:35:48.567Z,14.95
2023-02-03T15:39:27.678Z,24.05
2023-02-03T15:43:04.010Z,14.98
2023-02-03T15:46:24.218Z,15.13
2023-02-03T15:49:35.884Z,17.77
2023-02-03T15:52:42.894Z,10.73
2023-02-03T15:55:52.227Z,18.17
2023-02-03T15:58:58.931Z,19.55
2023-02-03T16:02:49.002Z,13.85
2023-02-03T16:05:54.368Z,12.50
2023-02-03T16:08:59.883Z,13.38
2023-02-03T16:12:33.587Z,18.67
2023-02-03T16:15:38.526Z,17.23
2023-02-03T16:19:00.020Z,14.90
2023-02-03T16:22:05.002Z,14.52
2023-02-03T16:25:25.688Z,26.65
2023-02-03T16:28:49.730Z,19.63
2023-02-03T16:32:13.630Z,14.80
2023-02-03T16:35:37.421Z,15.02
2023-02-03T16:39:08.692Z,12.23
2023-02-03T16:42:40.976Z,10.90
2023-02-03T16:46:04.295Z,14.05
2023-02-03T16:49:27.204Z,14.50
2023-02-03T16:52:31.945Z,12.82
2023-02-03T16:55:36.632Z,12.55
2023-02-03T16:58:41.301Z,16.52
2023-02-03T17:01:45.693Z,11.23
2023-02-03T17:04:50.130Z,15.45
2023-02-03T17:07:54.487Z,15.25
2023-02-03T17:11:15.990Z,14.55
2023-02-03T17:14:20.478Z,15.18
2023-02-03T17:17:25.965Z,14.60
2023-02-03T17:20:30.576Z,17.92
2023-02-03T17:23:35.369Z,9.77
2023-02-03T17:26:40.273Z,15.43
2023-02-03T17:29:45.389Z,15.05
2023-02-03T17:32:49.816Z,21.98
2023-02-03T17:36:09.270Z,24.38
2023-02-03T17:56:26.081Z,12.70
2023-02-03T17:59:30.934Z,15.25
2023-02-03T18:02:35.655Z,12.35
2023-02-03T18:05:49.240Z,13.98
2023-02-03T18:08:55.098Z,11.48
2023-02-03T18:11:59.795Z,23.05
2023-02-03T18:15:05.104Z,16.75
2023-02-03T18:18:13.437Z,17.45
2023-02-03T18:21:19.935Z,19.13
2023-02-03T18:24:27.946Z,51.60
2023-02-03T18:27:32.662Z,53.13
2023-02-03T18:30:37.572Z,70.30
2023-02-03T18:33:46.546Z,59.22
2023-02-03T18:36:51.193Z,43.00
2023-02-03T18:39:55.837Z,32.17
2023-02-03T18:43:02.365Z,29.58
2023-02-03T18:46:13.688Z,28.63
2023-02-03T18:49:19.092Z,25.05
2023-02-03T18:52:24.363Z,20.73
2023-02-03T18:55:28.946Z,27.60
2023-02-03T18:58:33.731Z,26.27
2023-02-03T19:01:41.485Z,20.42
2023-02-03T19:04:46.066Z,16.33
2023-02-03T19:07:51.053Z,15.32
2023-02-03T19:10:55.983Z,21.55
2023-02-03T19:14:00.530Z,19.75
2023-02-03T19:17:05.526Z,19.52
2023-02-03T19:20:11.166Z,13.13
2023-02-03T19:23:15.612Z,22.10
2023-02-03T19:26:20.630Z,18.77
2023-02-03T19:29:25.578Z,32.88
2023-02-03T19:32:31.877Z,17.85
2023-02-03T19:35:36.833Z,33.17
2023-02-03T19:38:41.830Z,20.85
2023-02-03T19:41:47.525Z,51.78
2023-02-03T19:44:52.330Z,62.72
2023-02-03T19:47:57.071Z,63.53
2023-02-03T19:51:02.506Z,78.35
2023-02-03T19:54:07.666Z,62.40
2023-02-03T19:57:12.692Z,39.88
2023-02-03T20:00:18.142Z,36.60
2023-02-03T20:03:24.413Z,52.42
2023-02-03T20:06:31.658Z,36.33
2023-02-03T20:09:36.380Z,46.97
2023-02-03T20:12:41.047Z,41.35
2023-02-03T20:15:47.645Z,36.40
2023-02-03T20:18:52.674Z,36.72
2023-02-03T20:21:57.785Z,43.72
2023-02-03T20:25:02.689Z,41.80
2023-02-03T20:28:07.673Z,32.90
2023-02-03T20:31:13.808Z,29.52
2023-02-03T20:34:18.097Z,27.35
2023-02-03T20:37:23.128Z,24.17
2023-02-03T20:40:29.669Z,26.27
2023-02-03T20:43:35.080Z,13.90
2023-02-03T20:46:40.748Z,16.35
2023-02-03T20:49:46.267Z,10.68
2023-02-03T20:52:52.936Z,15.05
2023-02-03T20:56:01.575Z,14.85
2023-02-03T20:59:12.469Z,12.55
2023-02-03T21:02:51.246Z,11.02
2023-02-03T21:05:56.298Z,17.05
2023-02-03T21:09:08.958Z,18.25
2023-02-03T21:12:14.235Z,22.05
2023-02-03T21:15:29.927Z,20.08
2023-02-03T21:18:50.479Z,13.10
2023-02-03T21:21:56.186Z,11.93
2023-02-03T21:25:03.356Z,14.10
2023-02-03T21:28:26.076Z,11.68
2023-02-03T21:31:34.241Z,14.77
2023-02-03T21:34:43.667Z,10.85
2023-02-03T21:37:48.480Z,20.08
2023-02-03T21:40:53.363Z,13.75
2023-02-03T21:43:59.534Z,11.32
2023-02-03T21:47:18.517Z,12.32
2023-02-03T21:50:40.771Z,15.98
2023-02-03T21:53:56.910Z,12.80
2023-02-03T21:57:01.844Z,13.73
2023-02-03T22:00:47.887Z,15.43
2023-02-03T22:03:55.489Z,9.68
2023-02-03T22:07:00.207Z,10.90
2023-02-03T22:10:05.343Z,16.33
2023-02-03T22:13:09.988Z,12.00
2023-02-03T22:16:17.226Z,12.88
2023-02-03T22:19:22.001Z,14.43
2023-02-03T22:22:26.768Z,17.85
2023-02-03T22:25:31.738Z,14.30
2023-02-03T22:28:36.847Z,10.23
2023-02-03T22:31:42.800Z,14.07
2023-02-03T22:34:48.055Z,12.25
2023-02-03T22:37:53.959Z,11.48
2023-02-03T22:40:59.412Z,11.45
2023-02-03T22:44:03.876Z,13.32
2023-02-03T22:47:08.916Z,13.20
2023-02-03T22:50:16.367Z,14.60
2023-02-03T22:53:21.982Z,16.40
2023-02-03T22:56:26.843Z,13.88
2023-02-03T22:59:31.446Z,7.05
2023-02-03T23:02:36.052Z,10.63
2023-02-03T23:05:40.268Z,13.40
2023-02-03T23:08:44.813Z,15.80
2023-02-03T23:11:49.484Z,8.85
2023-02-03T23:14:54.628Z,10.25
2023-02-03T23:17:59.585Z,10.93
2023-02-03T23:21:04.282Z,14.50
2023-02-03T23:24:09.023Z,14.45
2023-02-03T23:27:13.748Z,11.95
2023-02-03T23:30:18.975Z,9.05
2023-02-03T23:33:23.933Z,10.35
2023-02-03T23:36:28.640Z,12.57
2023-02-03T23:39:33.366Z,11.45
2023-02-03T23:42:38.058Z,12.02
2023-02-03T23:45:42.970Z,12.90
2023-02-03T23:48:47.766Z,13.60
2023-02-03T23:51:52.547Z,15.30
2023-02-03T23:54:57.308Z,13.77
2023-02-03T23:58:01.952Z,10.90
